Time;durP1;ratioP1;P1;durP2;ratioP2;P2;SDS_P1;SDS_P2;PMS_P1;PMS_P2;Temp;Humidity;BMP_temperature;BMP_pressure;BME280_temperature;BME280_humidity;BME280_pressure;Samples;Min_cycle;Max_cycle;Signal;HPM_P1;HPM_P2
2021/09/11 00:00:05;;;;;;;51.93;39.50;;;;;;;;;;5037142;28;20444;-86
2021/09/11 00:02:32;;;;;;;59.50;40.80;;;;;;;;;;5037040;28;20420;-86
2021/09/11 00:04:59;;;;;;;69.00;42.97;;;;;;;;;;5036899;28;20774;-86
2021/09/11 00:07:27;;;;;;;67.30;43.10;;;;;;;;;;5036496;28;20462;-86
2021/09/11 00:09:54;;;;;;;58.03;42.23;;;;;;;;;;5036326;28;20451;-86
2021/09/11 00:12:21;;;;;;;54.37;39.20;;;;;;;;;;5035532;28;20420;-86
2021/09/11 00:14:49;;;;;;;96.80;48.30;;;;;;;;;;5019497;28;20447;-86
2021/09/11 00:17:18;;;;;;;82.90;42.67;;;;;;;;;;5036105;28;20845;-86
2021/09/11 00:19:45;;;;;;;73.83;42.57;;;;;;;;;;5036769;28;20421;-86
2021/09/11 00:22:12;;;;;;;72.90;45.67;;;;;;;;;;5036815;28;20437;-86
2021/09/11 00:24:40;;;;;;;46.77;36.47;;;;;;;;;;5036394;28;20413;-86
2021/09/11 00:27:07;;;;;;;47.30;38.20;;;;;;;;;;5036290;28;20443;-86
2021/09/11 00:29:37;;;;;;;67.47;38.80;;;;;;;;;;5036331;28;20474;-86
2021/09/11 00:32:04;;;;;;;78.93;42.80;;;;;;;;;;5036191;28;20453;-86
2021/09/11 00:34:33;;;;;;;49.27;36.53;;;;;;;;;;5036188;28;20448;-86
2021/09/11 00:37:01;;;;;;;42.73;34.33;;;;;;;;;;5035963;28;20407;-86
2021/09/11 00:39:28;;;;;;;52.27;37.90;;;;;;;;;;5036237;28;20470;-86
2021/09/11 00:41:56;;;;;;;50.70;37.73;;;;;;;;;;5036050;28;20781;-86
2021/09/11 00:44:23;;;;;;;60.03;38.77;;;;;;;;;;5036087;28;20446;-86
2021/09/11 00:46:51;;;;;;;47.67;36.27;;;;;;;;;;5036116;28;20449;-86
2021/09/11 00:49:18;;;;;;;62.37;39.27;;;;;;;;;;5036240;28;20408;-86
2021/09/11 00:51:48;;;;;;;41.50;35.10;;;;;;;;;;5036069;28;20444;-86
2021/09/11 00:54:15;;;;;;;51.13;38.10;;;;;;;;;;5036110;28;20436;-86
2021/09/11 00:56:43;;;;;;;45.50;36.80;;;;;;;;;;5036006;28;20819;-86
2021/09/11 00:59:10;;;;;;;37.13;33.33;;;;;;;;;;5035907;28;20920;-86
2021/09/11 01:01:37;;;;;;;42.27;35.33;;;;;;;;;;5035668;28;20460;-86
2021/09/11 01:04:05;;;;;;;33.53;30.03;;;;;;;;;;5035589;28;20903;-86
2021/09/11 01:06:32;;;;;;;37.30;32.17;;;;;;;;;;5035964;28;20834;-86
2021/09/11 01:09:02;;;;;;;32.57;29.20;;;;;;;;;;5035630;28;20490;-86
2021/09/11 01:11:30;;;;;;;34.27;30.70;;;;;;;;;;5035443;28;20458;-86
2021/09/11 01:13:58;;;;;;;31.37;28.20;;;;;;;;;;5035371;28;20440;-86
2021/09/11 01:16:26;;;;;;;29.27;26.80;;;;;;;;;;5035429;28;20458;-86
2021/09/11 01:18:53;;;;;;;30.60;27.70;;;;;;;;;;5035157;28;20493;-86
2021/09/11 01:21:21;;;;;;;30.80;27.93;;;;;;;;;;5035058;28;20439;-86
2021/09/11 01:23:49;;;;;;;30.77;28.00;;;;;;;;;;5035141;28;20454;-86
2021/09/11 01:26:17;;;;;;;34.43;30.70;;;;;;;;;;5035575;28;20833;-86
2021/09/11 01:28:44;;;;;;;28.50;26.20;;;;;;;;;;5034910;28;20487;-87
2021/09/11 01:31:12;;;;;;;30.60;27.70;;;;;;;;;;5035461;28;20415;-86
2021/09/11 01:33:39;;;;;;;34.33;29.97;;;;;;;;;;5035327;28;20809;-86
2021/09/11 01:36:07;;;;;;;35.20;29.73;;;;;;;;;;5035381;28;20419;-86
2021/09/11 01:38:34;;;;;;;31.87;28.73;;;;;;;;;;5034787;28;20469;-86
2021/09/11 01:41:03;;;;;;;42.87;33.13;;;;;;;;;;5035342;28;20445;-86
2021/09/11 01:43:31;;;;;;;30.23;27.33;;;;;;;;;;5034660;28;20441;-86
2021/09/11 01:45:58;;;;;;;36.93;28.87;;;;;;;;;;5035185;28;20789;-86
2021/09/11 01:48:26;;;;;;;32.10;28.63;;;;;;;;;;5035008;28;20480;-86
2021/09/11 01:50:53;;;;;;;35.07;29.57;;;;;;;;;;5035105;28;20423;-86
2021/09/11 01:53:21;;;;;;;30.87;28.07;;;;;;;;;;5035022;28;20420;-86
2021/09/11 01:55:49;;;;;;;32.83;27.67;;;;;;;;;;5034597;28;20466;-86
2021/09/11 01:58:18;;;;;;;38.40;30.33;;;;;;;;;;5034608;28;20427;-86
2021/09/11 02:00:46;;;;;;;29.50;26.23;;;;;;;;;;5017343;28;20919;-86
2021/09/11 02:03:13;;;;;;;33.23;28.00;;;;;;;;;;5034536;28;20444;-86
2021/09/11 02:05:41;;;;;;;35.73;30.67;;;;;;;;;;5034824;28;20469;-86
2021/09/11 02:08:08;;;;;;;31.17;27.77;;;;;;;;;;5034685;28;20540;-86
2021/09/11 02:10:35;;;;;;;38.23;30.00;;;;;;;;;;5034597;28;20425;-86
2021/09/11 02:13:03;;;;;;;37.27;30.40;;;;;;;;;;5034438;28;20834;-87
2021/09/11 02:15:32;;;;;;;40.57;32.17;;;;;;;;;;5034625;28;20453;-86
2021/09/11 02:17:59;;;;;;;29.70;26.70;;;;;;;;;;5034101;28;21012;-86
2021/09/11 02:20:27;;;;;;;32.90;27.20;;;;;;;;;;5034499;28;20752;-86
2021/09/11 02:22:54;;;;;;;30.97;27.60;;;;;;;;;;5034529;28;20441;-86
2021/09/11 02:25:22;;;;;;;32.67;28.03;;;;;;;;;;5034345;28;20791;-86
2021/09/11 02:27:49;;;;;;;27.90;25.07;;;;;;;;;;5034262;28;20493;-86
2021/09/11 02:30:16;;;;;;;30.10;27.10;;;;;;;;;;5034314;28;20433;-86
2021/09/11 02:32:45;;;;;;;28.20;25.37;;;;;;;;;;5034295;28;20786;-86
2021/09/11 02:35:13;;;;;;;26.53;24.10;;;;;;;;;;5033679;28;20441;-86
2021/09/11 02:37:40;;;;;;;24.73;22.43;;;;;;;;;;5034279;28;20786;-85
2021/09/11 02:40:08;;;;;;;32.90;25.43;;;;;;;;;;5034045;28;20447;-85
2021/09/11 02:42:35;;;;;;;24.07;21.67;;;;;;;;;;5034259;28;20792;-86
2021/09/11 02:45:03;;;;;;;26.40;23.70;;;;;;;;;;5034252;28;20439;-86
2021/09/11 02:47:30;;;;;;;24.17;21.97;;;;;;;;;;5034209;28;20427;-86
2021/09/11 02:49:59;;;;;;;23.93;21.70;;;;;;;;;;5034133;28;20444;-86
2021/09/11 02:52:26;;;;;;;28.60;23.93;;;;;;;;;;5033850;28;20446;-86
2021/09/11 02:54:53;;;;;;;24.93;22.53;;;;;;;;;;5033917;28;20428;-86
2021/09/11 02:57:21;;;;;;;32.27;23.43;;;;;;;;;;5034000;28;20436;-86
2021/09/11 02:59:48;;;;;;;30.67;24.70;;;;;;;;;;5034163;28;20437;-86
2021/09/11 03:02:16;;;;;;;25.90;23.40;;;;;;;;;;5033662;28;20415;-86
2021/09/11 03:04:43;;;;;;;24.90;22.60;;;;;;;;;;5034196;28;20438;-87
2021/09/11 03:07:12;;;;;;;25.03;22.50;;;;;;;;;;5033684;28;20445;-86
2021/09/11 03:09:39;;;;;;;23.90;21.70;;;;;;;;;;5033434;28;20491;-86
2021/09/11 03:12:07;;;;;;;24.33;21.87;;;;;;;;;;5034061;28;20437;-86
2021/09/11 03:14:35;;;;;;;24.37;22.17;;;;;;;;;;5033370;28;20452;-86
2021/09/11 03:17:02;;;;;;;24.77;22.57;;;;;;;;;;5034157;28;20832;-86
2021/09/11 03:19:30;;;;;;;23.20;20.97;;;;;;;;;;5015951;28;20471;-86
2021/09/11 03:21:57;;;;;;;22.17;20.27;;;;;;;;;;5033937;28;20443;-86
2021/09/11 03:24:26;;;;;;;23.03;21.13;;;;;;;;;;5033503;28;20444;-86
2021/09/11 03:26:53;;;;;;;23.07;20.97;;;;;;;;;;5016108;28;20913;-86
2021/09/11 03:29:21;;;;;;;23.93;21.57;;;;;;;;;;5016054;28;20455;-86
2021/09/11 03:31:48;;;;;;;23.73;21.23;;;;;;;;;;5015901;28;20500;-86
2021/09/11 03:34:16;;;;;;;21.80;19.80;;;;;;;;;;5016302;28;20929;-86
2021/09/11 03:36:43;;;;;;;26.03;22.73;;;;;;;;;;5033576;28;20454;-86
2021/09/11 03:39:11;;;;;;;23.70;21.40;;;;;;;;;;5033519;28;20453;-86
2021/09/11 03:41:39;;;;;;;23.43;21.20;;;;;;;;;;5033811;28;20443;-86
2021/09/11 03:44:08;;;;;;;21.43;19.30;;;;;;;;;;5033291;28;20422;-86
2021/09/11 03:46:35;;;;;;;24.63;22.13;;;;;;;;;;5036995;28;20476;-86
2021/09/11 03:49:03;;;;;;;30.23;21.73;;;;;;;;;;5036904;28;20489;-86
2021/09/11 03:51:31;;;;;;;21.33;19.23;;;;;;;;;;5037364;28;20418;-86
2021/09/11 03:53:59;;;;;;;22.53;20.53;;;;;;;;;;5036826;28;20537;-86
2021/09/11 03:56:26;;;;;;;22.03;20.13;;;;;;;;;;5037181;28;20413;-86
2021/09/11 03:58:55;;;;;;;24.47;22.07;;;;;;;;;;5037145;28;20784;-86
2021/09/11 04:01:23;;;;;;;23.27;20.90;;;;;;;;;;5037093;28;20435;-86
2021/09/11 04:03:50;;;;;;;22.83;20.73;;;;;;;;;;5036839;28;20412;-86
2021/09/11 04:06:17;;;;;;;23.43;21.03;;;;;;;;;;5037033;28;20441;-86
2021/09/11 04:08:45;;;;;;;23.50;21.17;;;;;;;;;;5036978;28;20496;-86
2021/09/11 04:11:12;;;;;;;26.00;21.67;;;;;;;;;;5036579;28;20438;-86
2021/09/11 04:13:39;;;;;;;21.13;19.30;;;;;;;;;;5036812;28;20911;-86
2021/09/11 04:16:08;;;;;;;22.63;20.67;;;;;;;;;;5036379;28;20457;-86
2021/09/11 04:18:36;;;;;;;29.03;22.27;;;;;;;;;;5036262;28;20448;-86
2021/09/11 04:21:03;;;;;;;21.80;19.77;;;;;;;;;;5036567;28;20422;-86
2021/09/11 04:23:30;;;;;;;21.80;19.70;;;;;;;;;;5036710;28;20437;-86
2021/09/11 04:25:58;;;;;;;22.77;20.40;;;;;;;;;;5036520;28;20724;-86
2021/09/11 04:28:25;;;;;;;24.10;21.67;;;;;;;;;;5036424;28;20448;-86
2021/09/11 04:30:52;;;;;;;22.30;20.00;;;;;;;;;;5036155;28;20915;-86
2021/09/11 04:33:21;;;;;;;23.80;21.70;;;;;;;;;;5036464;28;20441;-86
2021/09/11 04:35:48;;;;;;;22.47;20.47;;;;;;;;;;5036281;28;20461;-86
2021/09/11 04:38:16;;;;;;;24.30;22.10;;;;;;;;;;5036189;28;20826;-86
2021/09/11 04:40:43;;;;;;;23.97;21.50;;;;;;;;;;5036354;28;20870;-86
2021/09/11 04:43:11;;;;;;;23.57;21.33;;;;;;;;;;5035816;28;20417;-86
2021/09/11 04:45:38;;;;;;;24.27;21.87;;;;;;;;;;5036004;28;20462;-86
2021/09/11 04:48:06;;;;;;;22.27;20.23;;;;;;;;;;5035673;28;20441;-86
2021/09/11 04:50:34;;;;;;;24.63;22.17;;;;;;;;;;5036603;28;20773;-86
2021/09/11 04:53:02;;;;;;;24.50;22.30;;;;;;;;;;5036003;28;20771;-86
2021/09/11 04:55:29;;;;;;;23.97;21.60;;;;;;;;;;5018300;28;20489;-87
2021/09/11 04:57:57;;;;;;;25.27;22.20;;;;;;;;;;5034939;28;20421;-86
2021/09/11 05:00:24;;;;;;;26.53;23.57;;;;;;;;;;5036273;28;20455;-85
2021/09/11 05:02:52;;;;;;;27.00;22.03;;;;;;;;;;5035866;28;20437;-86
2021/09/11 05:05:19;;;;;;;24.93;22.33;;;;;;;;;;5035773;28;20460;-86
2021/09/11 05:07:48;;;;;;;29.20;23.17;;;;;;;;;;5035574;28;20525;-86
2021/09/11 05:10:15;;;;;;;27.07;23.57;;;;;;;;;;5035348;28;20986;-86
2021/09/11 05:12:43;;;;;;;26.13;23.43;;;;;;;;;;5035186;28;20455;-86
2021/09/11 05:15:12;;;;;;;27.67;24.07;;;;;;;;;;5035684;28;20444;-86
2021/09/11 05:17:39;;;;;;;33.70;26.20;;;;;;;;;;5035166;28;21068;-86
2021/09/11 05:20:07;;;;;;;33.77;27.47;;;;;;;;;;5018234;28;20415;-86
2021/09/11 05:22:35;;;;;;;31.03;25.80;;;;;;;;;;5035097;28;20762;-86
2021/09/11 05:25:03;;;;;;;34.23;26.53;;;;;;;;;;5035253;28;20440;-86
2021/09/11 05:27:31;;;;;;;35.60;27.70;;;;;;;;;;5035300;28;20446;-87
2021/09/11 05:29:58;;;;;;;35.03;26.83;;;;;;;;;;5035005;28;20581;-86
2021/09/11 05:32:26;;;;;;;42.17;28.43;;;;;;;;;;5035151;28;20423;-82
2021/09/11 05:34:53;;;;;;;41.40;29.60;;;;;;;;;;5034706;28;20901;-82
2021/09/11 05:37:21;;;;;;;40.00;28.17;;;;;;;;;;5034493;28;20443;-83
2021/09/11 05:39:48;;;;;;;38.87;28.30;;;;;;;;;;5034963;28;20478;-87
2021/09/11 05:42:19;;;;;;;47.60;29.17;;;;;;;;;;5018042;28;20773;-87
2021/09/11 05:44:47;;;;;;;47.40;29.70;;;;;;;;;;5034821;28;20456;-82
2021/09/11 05:47:14;;;;;;;45.57;29.70;;;;;;;;;;5034582;28;20899;-82
2021/09/11 05:49:41;;;;;;;49.17;30.50;;;;;;;;;;5034212;28;20493;-82
2021/09/11 05:52:09;;;;;;;47.90;31.50;;;;;;;;;;5034592;28;20414;-87
2021/09/11 05:54:36;;;;;;;59.37;31.00;;;;;;;;;;5034702;28;20547;-87
2021/09/11 05:57:04;;;;;;;49.40;30.37;;;;;;;;;;5017389;28;20482;-87
2021/09/11 05:59:33;;;;;;;51.90;31.13;;;;;;;;;;5034218;28;20421;-82
2021/09/11 06:02:00;;;;;;;49.80;29.80;;;;;;;;;;5034069;28;20445;-82
2021/09/11 06:04:28;;;;;;;49.07;31.73;;;;;;;;;;5034236;28;20448;-84
2021/09/11 06:06:55;;;;;;;55.60;31.23;;;;;;;;;;5034715;28;20459;-87
2021/09/11 06:09:23;;;;;;;44.13;29.10;;;;;;;;;;5033331;28;20470;-87
2021/09/11 06:11:50;;;;;;;41.63;29.30;;;;;;;;;;5034369;28;20474;-81
2021/09/11 06:14:17;;;;;;;40.87;29.67;;;;;;;;;;5034039;28;20436;-83
2021/09/11 06:16:46;;;;;;;51.83;31.73;;;;;;;;;;5034477;28;20460;-83
2021/09/11 06:19:14;;;;;;;37.77;27.93;;;;;;;;;;5033635;28;20859;-86
2021/09/11 06:21:41;;;;;;;41.33;28.17;;;;;;;;;;5016811;28;20475;-87
2021/09/11 06:24:09;;;;;;;47.53;28.77;;;;;;;;;;5034420;28;20442;-82
2021/09/11 06:26:36;;;;;;;43.47;28.90;;;;;;;;;;5033614;28;20471;-82
2021/09/11 06:29:04;;;;;;;45.70;30.30;;;;;;;;;;5033432;28;20483;-81
2021/09/11 06:31:31;;;;;;;38.63;27.83;;;;;;;;;;5033814;28;20418;-82
2021/09/11 06:34:01;;;;;;;37.57;27.67;;;;;;;;;;5033879;28;20427;-82
2021/09/11 06:36:29;;;;;;;40.60;28.10;;;;;;;;;;5033749;28;20783;-82
2021/09/11 06:38:56;;;;;;;37.00;28.57;;;;;;;;;;5015805;28;20446;-82
2021/09/11 06:41:24;;;;;;;37.20;26.13;;;;;;;;;;5033756;28;20433;-82
2021/09/11 06:43:51;;;;;;;40.30;29.20;;;;;;;;;;5033611;28;20412;-82
2021/09/11 06:46:19;;;;;;;38.80;28.43;;;;;;;;;;5033517;28;20453;-82
2021/09/11 06:48:46;;;;;;;34.60;26.77;;;;;;;;;;5033601;28;20760;-82
2021/09/11 06:51:15;;;;;;;35.77;26.73;;;;;;;;;;5033300;28;20915;-82
2021/09/11 06:53:42;;;;;;;33.50;26.23;;;;;;;;;;5033585;28;20429;-82
2021/09/11 06:56:10;;;;;;;37.77;27.07;;;;;;;;;;5033237;28;20410;-81
2021/09/11 06:58:37;;;;;;;39.67;28.10;;;;;;;;;;5033323;28;20803;-82
2021/09/11 07:01:04;;;;;;;33.70;26.70;;;;;;;;;;5033568;28;20432;-82
2021/09/11 07:03:32;;;;;;;36.17;26.90;;;;;;;;;;5033622;28;20431;-82
2021/09/11 07:05:59;;;;;;;30.43;25.47;;;;;;;;;;5033644;28;20433;-81
2021/09/11 07:08:29;;;;;;;35.00;26.00;;;;;;;;;;5033609;28;20435;-81
2021/09/11 07:10:56;;;;;;;31.47;24.90;;;;;;;;;;5033457;28;20485;-82
2021/09/11 07:13:23;;;;;;;31.63;25.07;;;;;;;;;;5015478;28;20511;-80
2021/09/11 07:15:51;;;;;;;29.73;25.07;;;;;;;;;;5033503;28;20415;-81
2021/09/11 07:18:18;;;;;;;32.10;24.17;;;;;;;;;;5032996;28;20974;-81
2021/09/11 07:20:46;;;;;;;28.03;24.70;;;;;;;;;;5035792;28;20446;-81
2021/09/11 07:23:14;;;;;;;30.80;24.37;;;;;;;;;;5037214;28;20405;-81
2021/09/11 07:25:42;;;;;;;28.90;24.97;;;;;;;;;;5037375;28;20535;-81
2021/09/11 07:28:10;;;;;;;28.23;24.27;;;;;;;;;;5037086;28;20415;-80
2021/09/11 07:30:37;;;;;;;35.53;25.30;;;;;;;;;;5036660;28;20467;-82
2021/09/11 07:33:06;;;;;;;28.90;23.57;;;;;;;;;;5036965;28;20443;-85
2021/09/11 07:35:33;;;;;;;34.00;26.47;;;;;;;;;;5036978;28;20449;-83
2021/09/11 07:38:00;;;;;;;27.40;23.70;;;;;;;;;;5036757;28;20490;-84
2021/09/11 07:40:28;;;;;;;28.23;25.10;;;;;;;;;;5036823;28;20414;-84
2021/09/11 07:42:57;;;;;;;28.30;25.27;;;;;;;;;;5036974;28;20444;-84
2021/09/11 07:45:24;;;;;;;30.80;26.33;;;;;;;;;;5019337;28;20930;-84
2021/09/11 07:47:52;;;;;;;31.13;25.10;;;;;;;;;;5036949;28;20452;-83
2021/09/11 07:50:25;;;;;;;33.13;26.37;;;;;;;;;;5019293;28;20464;-84
2021/09/11 07:52:53;;;;;;;34.90;27.20;;;;;;;;;;5021357;28;20448;-84
2021/09/11 07:55:20;;;;;;;36.03;27.47;;;;;;;;;;5036943;28;20592;-84
2021/09/11 07:57:48;;;;;;;36.37;28.07;;;;;;;;;;5036911;28;20453;-83
2021/09/11 08:00:18;;;;;;;33.30;27.10;;;;;;;;;;5036180;28;20444;-86
2021/09/11 08:02:46;;;;;;;37.80;28.90;;;;;;;;;;5037663;28;20532;-87
2021/09/11 08:05:14;;;;;;;35.23;27.50;;;;;;;;;;5020113;28;20442;-89
2021/09/11 08:07:41;;;;;;;33.30;27.60;;;;;;;;;;5037130;28;20439;-87
2021/09/11 08:10:09;;;;;;;40.07;29.53;;;;;;;;;;5036487;28;20846;-83
2021/09/11 08:12:37;;;;;;;41.03;30.77;;;;;;;;;;5036251;28;20416;-83
2021/09/11 08:15:05;;;;;;;38.27;29.20;;;;;;;;;;5036027;28;20444;-83
2021/09/11 08:17:34;;;;;;;36.63;30.77;;;;;;;;;;5035879;28;20416;-82
2021/09/11 08:20:01;;;;;;;38.83;30.10;;;;;;;;;;5018614;28;20423;-83
2021/09/11 08:22:28;;;;;;;43.73;32.93;;;;;;;;;;5036122;28;20447;-81
2021/09/11 08:24:56;;;;;;;39.57;31.03;;;;;;;;;;5036034;28;20925;-83
2021/09/11 08:27:24;;;;;;;37.27;30.43;;;;;;;;;;5036163;28;20449;-83
2021/09/11 08:29:51;;;;;;;39.50;31.77;;;;;;;;;;5036126;28;20550;-83
2021/09/11 08:32:19;;;;;;;39.47;32.37;;;;;;;;;;5035167;28;20448;-83
2021/09/11 08:34:48;;;;;;;37.40;32.17;;;;;;;;;;5036039;28;20480;-83
2021/09/11 08:37:16;;;;;;;39.07;31.07;;;;;;;;;;5035453;28;20434;-82
2021/09/11 08:39:43;;;;;;;40.20;33.57;;;;;;;;;;5035755;28;20446;-82
2021/09/11 08:42:11;;;;;;;42.80;33.50;;;;;;;;;;5035569;28;20445;-82
2021/09/11 08:44:38;;;;;;;43.43;33.23;;;;;;;;;;5035288;28;20963;-82
2021/09/11 08:47:07;;;;;;;42.97;34.30;;;;;;;;;;5035437;28;20449;-82
2021/09/11 08:49:34;;;;;;;38.40;32.10;;;;;;;;;;5035655;28;20441;-82
2021/09/11 08:52:07;;;;;;;40.03;32.47;;;;;;;;;;5035729;28;20445;-82
2021/09/11 08:54:35;;;;;;;37.97;32.77;;;;;;;;;;5017944;28;20459;-82
2021/09/11 08:57:17;;;;;;;38.33;31.73;;;;;;;;;;5035597;28;20520;-82
2021/09/11 08:59:45;;;;;;;35.83;30.20;;;;;;;;;;5035320;28;20808;-88
2021/09/11 09:02:12;;;;;;;36.00;31.60;;;;;;;;;;5035383;28;20489;-83
2021/09/11 09:04:43;;;;;;;35.53;29.90;;;;;;;;;;5035552;28;20435;-82
2021/09/11 09:07:12;;;;;;;30.07;27.10;;;;;;;;;;5017465;28;20934;-82
2021/09/11 09:09:43;;;;;;;29.97;26.87;;;;;;;;;;5035037;28;20454;-82
2021/09/11 09:12:14;;;;;;;32.07;29.03;;;;;;;;;;5035081;28;20921;-82
2021/09/11 09:14:43;;;;;;;29.40;26.60;;;;;;;;;;5034969;28;21000;-82
2021/09/11 09:17:12;;;;;;;22.53;20.73;;;;;;;;;;5035077;28;20461;-82
2021/09/11 09:19:40;;;;;;;17.00;15.70;;;;;;;;;;5034786;28;20508;-82
2021/09/11 09:22:07;;;;;;;19.03;17.43;;;;;;;;;;5035194;28;20787;-82
2021/09/11 09:24:37;;;;;;;18.67;17.10;;;;;;;;;;5035202;28;20424;-82
2021/09/11 09:27:05;;;;;;;16.77;15.57;;;;;;;;;;5034995;28;20508;-82
2021/09/11 09:29:35;;;;;;;18.20;17.03;;;;;;;;;;5034581;28;20899;-82
2021/09/11 09:32:03;;;;;;;18.00;16.50;;;;;;;;;;5034812;28;20439;-82
2021/09/11 09:34:32;;;;;;;18.60;17.30;;;;;;;;;;5034932;28;20417;-82
2021/09/11 09:37:00;;;;;;;20.17;18.53;;;;;;;;;;5034729;28;20794;-82
2021/09/11 09:39:28;;;;;;;19.77;18.37;;;;;;;;;;5034593;28;20434;-82
2021/09/11 09:42:02;;;;;;;20.47;19.17;;;;;;;;;;5034603;28;20412;-82
2021/09/11 09:44:29;;;;;;;21.80;20.03;;;;;;;;;;5034620;28;20449;-81
2021/09/11 09:46:57;;;;;;;24.80;23.10;;;;;;;;;;5034749;28;20438;-80
2021/09/11 09:49:25;;;;;;;25.57;23.40;;;;;;;;;;5034682;28;20441;-80
2021/09/11 09:51:53;;;;;;;24.63;22.90;;;;;;;;;;5034463;28;20873;-82
2021/09/11 09:54:21;;;;;;;24.97;23.17;;;;;;;;;;5016721;28;20431;-82
2021/09/11 09:56:48;;;;;;;26.63;24.73;;;;;;;;;;5034472;28;20445;-82
2021/09/11 09:59:18;;;;;;;26.87;24.73;;;;;;;;;;5034218;28;20450;-82
2021/09/11 10:01:49;;;;;;;24.30;22.60;;;;;;;;;;5034306;28;20422;-82
2021/09/11 10:04:17;;;;;;;23.70;21.90;;;;;;;;;;5034135;28;20445;-81
2021/09/11 10:06:46;;;;;;;24.47;22.80;;;;;;;;;;5016615;28;20929;-81
2021/09/11 10:09:14;;;;;;;24.10;22.30;;;;;;;;;;5034283;28;20433;-81
2021/09/11 10:11:42;;;;;;;24.13;22.43;;;;;;;;;;5033862;28;20485;-81
2021/09/11 10:14:12;;;;;;;24.50;22.70;;;;;;;;;;5034121;28;20419;-81
2021/09/11 10:16:42;;;;;;;25.63;23.93;;;;;;;;;;5016250;28;20854;-81
2021/09/11 10:19:16;;;;;;;24.50;22.80;;;;;;;;;;5033748;28;20464;-81
2021/09/11 10:21:43;;;;;;;24.77;23.10;;;;;;;;;;5034109;28;20449;-81
2021/09/11 10:24:44;;;;;;;23.47;21.97;;;;;;;;;;5015731;28;20438;-83
2021/09/11 10:27:12;;;;;;;24.60;22.90;;;;;;;;;;4953590;29;20445;-83
2021/09/11 10:29:49;;;;;;;23.13;21.60;;;;;;;;;;4953809;29;20442;-83
2021/09/11 10:32:19;;;;;;;23.70;22.07;;;;;;;;;;4953816;29;20902;-84
2021/09/11 10:34:51;;;;;;;25.23;23.37;;;;;;;;;;4953887;29;20464;-83
2021/09/11 10:37:32;;;;;;;25.67;23.90;;;;;;;;;;4953218;29;20456;-83
2021/09/11 10:40:19;;;;;;;24.77;23.27;;;;;;;;;;4953729;29;20436;-84
2021/09/11 10:43:05;;;;;;;24.83;23.33;;;;;;;;;;4953345;29;20421;-87
2021/09/11 10:45:39;;;;;;;26.07;24.27;;;;;;;;;;4953575;29;20433;-82
2021/09/11 10:48:08;;;;;;;24.47;22.87;;;;;;;;;;4953648;29;20921;-83
2021/09/11 10:50:39;;;;;;;25.67;23.97;;;;;;;;;;4953244;28;20829;-83
2021/09/11 10:53:20;;;;;;;25.80;24.10;;;;;;;;;;4953485;29;20489;-83
2021/09/11 10:55:48;;;;;;;25.43;23.87;;;;;;;;;;4952846;29;20905;-83
2021/09/11 10:58:22;;;;;;;25.80;24.10;;;;;;;;;;4999005;28;20457;-83
2021/09/11 11:00:59;;;;;;;25.30;23.80;;;;;;;;;;5033437;28;20452;-83
2021/09/11 11:03:28;;;;;;;25.50;23.87;;;;;;;;;;5033698;28;20783;-83
2021/09/11 11:06:02;;;;;;;26.20;24.50;;;;;;;;;;5033596;28;20450;-83
2021/09/11 11:08:30;;;;;;;26.60;24.90;;;;;;;;;;5033614;28;20446;-83
2021/09/11 11:10:58;;;;;;;26.20;24.50;;;;;;;;;;5033208;28;20897;-83
2021/09/11 11:13:25;;;;;;;27.30;25.50;;;;;;;;;;5033048;28;20908;-83
2021/09/11 11:15:55;;;;;;;27.77;26.17;;;;;;;;;;5033295;28;20454;-81
2021/09/11 11:18:23;;;;;;;26.10;24.60;;;;;;;;;;5033032;28;20497;-83
2021/09/11 11:20:51;;;;;;;26.57;24.97;;;;;;;;;;5033271;28;20735;-83
2021/09/11 11:23:19;;;;;;;27.47;25.87;;;;;;;;;;5033428;28;20413;-83
2021/09/11 11:25:46;;;;;;;27.93;26.03;;;;;;;;;;5033069;28;20447;-82
2021/09/11 11:28:14;;;;;;;26.50;25.00;;;;;;;;;;5033200;28;20441;-83
2021/09/11 11:30:44;;;;;;;27.17;25.57;;;;;;;;;;5033078;28;20485;-83
2021/09/11 11:33:11;;;;;;;26.63;25.00;;;;;;;;;;5033093;28;20454;-83
2021/09/11 11:35:40;;;;;;;25.40;23.77;;;;;;;;;;5033361;28;20466;-82
2021/09/11 11:38:10;;;;;;;23.93;22.43;;;;;;;;;;5032970;28;20484;-83
2021/09/11 11:40:38;;;;;;;26.57;24.97;;;;;;;;;;5015548;28;20458;-82
2021/09/11 11:43:06;;;;;;;25.47;23.87;;;;;;;;;;5033221;28;20442;-83
2021/09/11 11:45:34;;;;;;;25.80;24.30;;;;;;;;;;5033277;28;20439;-82
2021/09/11 11:48:04;;;;;;;24.90;23.30;;;;;;;;;;5032956;28;20443;-83
2021/09/11 11:50:33;;;;;;;25.00;23.43;;;;;;;;;;5033121;28;20447;-82
2021/09/11 11:53:01;;;;;;;24.83;23.30;;;;;;;;;;5033200;28;20794;-83
2021/09/11 11:55:34;;;;;;;24.50;23.00;;;;;;;;;;5033289;28;20435;-83
2021/09/11 11:58:14;;;;;;;24.13;22.63;;;;;;;;;;5033079;28;20443;-83
2021/09/11 12:00:42;;;;;;;24.27;22.87;;;;;;;;;;5032863;28;20450;-82
2021/09/11 12:03:25;;;;;;;24.50;23.10;;;;;;;;;;5032860;28;20439;-86
2021/09/11 12:05:52;;;;;;;26.23;24.70;;;;;;;;;;5031880;28;20805;-82
2021/09/11 12:08:19;;;;;;;25.80;24.30;;;;;;;;;;5035805;28;20533;-83
2021/09/11 12:10:53;;;;;;;26.73;25.03;;;;;;;;;;5036491;28;20456;-83
2021/09/11 12:13:21;;;;;;;29.20;27.20;;;;;;;;;;5036064;28;20440;-83
2021/09/11 12:15:49;;;;;;;27.93;26.27;;;;;;;;;;5036058;28;20442;-82
2021/09/11 12:18:17;;;;;;;27.60;25.77;;;;;;;;;;5035892;28;20496;-83
2021/09/11 12:20:46;;;;;;;28.07;26.37;;;;;;;;;;5036068;28;20922;-83
2021/09/11 12:23:17;;;;;;;30.83;29.10;;;;;;;;;;5035233;28;20907;-82
2021/09/11 12:26:02;;;;;;;32.03;30.33;;;;;;;;;;5036071;28;20464;-83
2021/09/11 12:28:38;;;;;;;31.23;29.63;;;;;;;;;;5036171;28;20450;-82
2021/09/11 12:31:06;;;;;;;31.90;30.17;;;;;;;;;;5035907;28;20466;-82
2021/09/11 12:33:41;;;;;;;33.80;32.00;;;;;;;;;;5036066;28;20446;-83
2021/09/11 12:36:22;;;;;;;34.17;32.30;;;;;;;;;;5036052;28;20433;-82
2021/09/11 12:38:50;;;;;;;32.93;31.13;;;;;;;;;;5035796;28;20444;-82
2021/09/11 12:41:18;;;;;;;34.50;32.60;;;;;;;;;;5035986;28;20923;-82
2021/09/11 12:43:47;;;;;;;34.77;32.87;;;;;;;;;;5035802;28;20432;-82
2021/09/11 12:46:15;;;;;;;34.80;32.90;;;;;;;;;;5035413;28;20772;-82
2021/09/11 12:48:42;;;;;;;34.57;32.53;;;;;;;;;;5035496;28;20450;-82
2021/09/11 12:51:09;;;;;;;31.90;30.10;;;;;;;;;;5035686;28;20923;-82
2021/09/11 12:53:37;;;;;;;31.53;29.83;;;;;;;;;;5035535;28;20498;-82
2021/09/11 12:56:04;;;;;;;30.77;29.07;;;;;;;;;;5017748;28;20479;-82
2021/09/11 12:58:32;;;;;;;28.70;27.10;;;;;;;;;;5035647;28;20442;-82
2021/09/11 13:01:01;;;;;;;29.50;27.90;;;;;;;;;;5035607;28;20794;-80
2021/09/11 13:03:29;;;;;;;29.80;28.07;;;;;;;;;;5035267;28;20899;-82
2021/09/11 13:05:56;;;;;;;29.30;27.40;;;;;;;;;;5035499;28;20496;-81
2021/09/11 13:08:24;;;;;;;29.30;27.60;;;;;;;;;;5035167;28;20428;-82
2021/09/11 13:10:51;;;;;;;29.33;27.60;;;;;;;;;;5035175;28;20425;-82
2021/09/11 13:13:19;;;;;;;30.57;28.70;;;;;;;;;;5035269;28;20409;-82
2021/09/11 13:15:46;;;;;;;30.33;28.53;;;;;;;;;;5035306;28;20425;-82
2021/09/11 13:18:15;;;;;;;30.77;28.87;;;;;;;;;;5034286;28;20976;-82
2021/09/11 13:20:43;;;;;;;30.83;28.93;;;;;;;;;;5035049;28;20511;-82
2021/09/11 13:23:10;;;;;;;31.27;29.47;;;;;;;;;;5034908;28;20451;-82
2021/09/11 13:25:37;;;;;;;29.20;27.60;;;;;;;;;;5034750;28;20429;-82
2021/09/11 13:28:05;;;;;;;29.93;28.23;;;;;;;;;;5017405;28;20418;-82
2021/09/11 13:30:32;;;;;;;27.40;25.87;;;;;;;;;;5035033;28;20413;-82
2021/09/11 13:33:00;;;;;;;28.63;27.00;;;;;;;;;;5034952;28;20566;-82
2021/09/11 13:35:28;;;;;;;27.70;26.10;;;;;;;;;;5034561;28;20418;-83
2021/09/11 13:37:57;;;;;;;28.07;26.37;;;;;;;;;;5034733;28;20470;-82
2021/09/11 13:40:24;;;;;;;26.80;25.20;;;;;;;;;;5034589;28;20451;-82
2021/09/11 13:42:51;;;;;;;25.30;23.80;;;;;;;;;;5035243;28;20779;-82
2021/09/11 13:45:19;;;;;;;27.17;25.57;;;;;;;;;;5034398;28;20409;-82
2021/09/11 13:47:46;;;;;;;26.80;25.00;;;;;;;;;;5034323;28;20447;-82
2021/09/11 13:50:14;;;;;;;28.10;26.40;;;;;;;;;;5034739;28;20835;-82
2021/09/11 13:52:42;;;;;;;26.27;24.77;;;;;;;;;;5034206;28;20981;-82
2021/09/11 13:55:10;;;;;;;27.20;25.20;;;;;;;;;;5034566;28;20447;-82
2021/09/11 13:57:37;;;;;;;27.17;25.60;;;;;;;;;;5034116;28;20447;-82
2021/09/11 14:00:06;;;;;;;27.00;25.40;;;;;;;;;;5034542;28;20443;-81
2021/09/11 14:02:33;;;;;;;25.10;23.63;;;;;;;;;;5034375;28;20451;-81
2021/09/11 14:05:00;;;;;;;26.47;24.87;;;;;;;;;;5034160;28;20427;-82
2021/09/11 14:07:28;;;;;;;26.17;24.67;;;;;;;;;;5034134;28;20443;-81
2021/09/11 14:09:58;;;;;;;26.53;24.93;;;;;;;;;;5034441;28;20439;-82
2021/09/11 14:12:25;;;;;;;26.60;25.10;;;;;;;;;;5033912;28;20464;-81
2021/09/11 14:14:52;;;;;;;26.50;25.07;;;;;;;;;;5034104;28;20429;-81
2021/09/11 14:17:20;;;;;;;26.43;24.87;;;;;;;;;;5033732;28;20414;-81
2021/09/11 14:19:47;;;;;;;26.23;24.73;;;;;;;;;;5033560;28;20497;-81
2021/09/11 14:22:14;;;;;;;26.17;24.70;;;;;;;;;;5034005;28;20439;-81